• Join FlightAware (Why Join?)
  • Login
  • US Flag 
07:22PM EDT


 

Airport Tracker/Info


-or-


 

Live Flight TrackerFlight Track Log ✈ VET430 ✈ 09-Jul-2013 ✈ KIAD - KGMU

Flight Track Log - Related Links

Times and Time Zones

All times are in EDT time to prevent confusion due to time zone crossing. See the VET430 flight status page for this flight to view local times or setup timezone preferences in your user account.

Time Position Orientation Groundspeed Altitude Reporting Facility
EDT Latitude Longitude Course Direction KTS MPH feet Rate Location/Type
08:16PM 38.9333 -77.5167 180° South 209 241 2,400  Level Potomac TRACON
08:17PM 38.8667 -77.5167 180° South 248 285 5,700 3,180 Climbing Potomac TRACON
08:18PM 38.8000 -77.4667 150° Southeast 279 321 8,900 2,700 Climbing Potomac TRACON
08:19PM 38.7167 -77.4833 189° South 276 318 11,100 2,520 Climbing Potomac TRACON
08:21PM 38.5689 -77.6311 218° Southwest 300 345 17,300 2,640 Climbing Washington Center
08:22PM 38.5008 -77.6981 218° Southwest 306 352 20,000 2,340 Climbing Washington Center
08:23PM 38.4389 -77.7786 226° Southwest 311 358 22,000 2,040 Climbing Washington Center
08:24PM 38.3728 -77.8614 224° Southwest 323 372 24,100 1,740 Climbing Washington Center
08:25PM 38.3022 -77.9492 224° Southwest 341 392 25,600 1,380 Climbing Washington Center
08:26PM 38.2317 -78.0394 225° Southwest 354 407 26,900 1,260 Climbing Washington Center
08:27PM 38.1567 -78.1347 225° Southwest 371 427 28,200 1,260 Climbing Washington Center
08:28PM 38.0817 -78.2297 225° Southwest 382 440 29,400 900 Climbing Washington Center
08:29PM 38.0131 -78.3144 224° Southwest 388 447 30,000 240 Climbing Washington Center
08:30PM 37.9228 -78.4269 225° Southwest 403 464 30,000  Level Washington Center
08:31PM 37.8411 -78.5264 224° Southwest 413 475 30,000  Level Washington Center
08:32PM 37.7553 -78.6333 225° Southwest 423 487 30,100 600 Climbing Washington Center
08:33PM 37.6733 -78.7297 223° Southwest 423 487 31,300 900 Climbing Washington Center
08:34PM 37.6022 -78.8186 225° Southwest 418 481 32,000 300 Climbing Washington Center
08:35PM 37.5181 -78.9172 223° Southwest 418 481 32,000  Level Washington Center
08:36PM 37.4339 -79.0181 224° Southwest 418 481 32,000  Level Washington Center
08:37PM 37.3475 -79.1239 224° Southwest 423 487 32,000  Level Washington Center
08:38PM 37.2589 -79.2269 223° Southwest 423 487 32,000  Level Washington Center
08:39PM 37.1736 -79.3558 230° Southwest 431 496 32,000  Level Washington Center
08:40PM 37.0969 -79.4692 230° Southwest 431 496 32,000  Level Washington Center
08:41PM 37.0181 -79.5850 230° Southwest 436 502 32,000  Level Washington Center
08:42PM 36.9411 -79.6978 230° Southwest 441 507 32,000  Level Washington Center
08:43PM 36.8661 -79.8108 230° Southwest 441 507 32,000  Level Washington Center
08:44PM 36.8078 -79.8906 228° Southwest 439 505 32,000 -360 Level Atlanta Center
08:45PM 36.7322 -80.0008 229° Southwest 433 498 31,400 -1,020 Descending Atlanta Center
08:46PM 36.6525 -80.1161 229° Southwest 433 498 30,000 -1,500 Descending Atlanta Center
08:47PM 36.5747 -80.2311 230° Southwest 433 498 28,500 -1,500 Descending Atlanta Center
08:48PM 36.4789 -80.2950 208° Southwest 438 504 27,100 -1,440 Descending Atlanta Center
08:49PM 36.3611 -80.3392 197° South 438 504 25,700 -1,500 Descending Atlanta Center
08:50PM 36.2519 -80.3775 196° South 426 490 24,200 -1,500 Descending Atlanta Center
08:51PM 36.1603 -80.4589 216° Southwest 394 453 22,700 -1,620 Descending Atlanta Center
08:52PM 36.0761 -80.5706 227° Southwest 405 466 21,000 -1,500 Descending Atlanta Center
08:53PM 36.0117 -80.6606 228° Southwest 400 460 19,700 -1,500 Descending Atlanta Center
08:54PM 35.9414 -80.7558 228° Southwest 388 447 18,100 -1,320 Descending Atlanta Center
08:55PM 35.8772 -80.8506 230° Southwest 374 430 17,100 -600 Descending Atlanta Center
08:56PM 35.8381 -80.9547 245° Southwest 345 397 17,000 -60 Descending Atlanta Center
08:57PM 35.8033 -81.0661 249° West 345 397 17,000  Level Atlanta Center
08:58PM 35.7683 -81.1775 249° West 356 410 17,000  Level Atlanta Center
08:59PM 35.7292 -81.2861 246° West 356 410 17,000 -120 Level Atlanta Center
09:00PM 35.6731 -81.3878 236° Southwest 356 410 16,800 -600 Descending Atlanta Center
09:01PM 35.6144 -81.4792 232° Southwest 356 410 15,800 -960 Descending Atlanta Center
09:02PM 35.5494 -81.5628 226° Southwest 349 402 14,900 -1,020 Descending Atlanta Center
09:03PM 35.4800 -81.6439 224° Southwest 344 396 13,800 -1,080 Descending Atlanta Center
09:04PM 35.4086 -81.7275 224° Southwest 354 407 12,800 -1,440 Descending Atlanta Center
09:05PM 35.3328 -81.8086 221° Southwest 346 398 11,000 -1,980 Descending Atlanta Center
09:06PM 35.2736 -81.8764 223° Southwest 313 360 8,900 -1,500 Descending Atlanta Center
09:07PM 35.2544 -81.9683 256° West 280 322 8,000 -480 Descending Atlanta Center
09:08PM 35.2578 -82.0547 273° West 262 302 8,000  Level Atlanta Center
09:09PM 35.2447 -82.1417 260° West 254 292 8,000  Level Atlanta Center
09:10PM 35.2231 -82.2261 253° West 261 300 8,000  Level Atlanta Center
09:11PM 35.1992 -82.3156 252° West 267 307 8,000  Level Atlanta Center
09:12PM 35.1669 -82.3950 244° Southwest 273 314 8,000  Level Atlanta Center
09:13PM 35.1347 -82.4869 247° West 279 321 8,000 -120 Level Atlanta Center
09:14PM 35.0814 -82.5564 227° Southwest 279 321 7,800 -600 Descending Atlanta Center
09:15PM 35.0211 -82.5856 202° Southwest 250 288 6,800 -1,020 Descending Atlanta Center
09:17PM 34.8935 -82.4118 132° Southeast  Level Estimated